Terminal Aerodrome Forecast
Issued by NWS Charleston, WV

Current Version | Previous Version | Graphics & Text | Print | Product List | Glossary On
Versions: 1 2 3 4 5 6 7 8 9 10 11 12 13 14 15 16 17 18 19 20 21 22 23 24 25 26
413
FTUS41 KRLX 200448 AAC
TAFPKB
TAF AMD
KPKB 200448Z 2005/2024 00000KT 1/4SM FG VV009
     FM200600 00000KT 1/4SM FG VV001
     FM201300 00000KT 1SM BR BKN001
     FM201500 VRB03KT P6SM SCT030
     FM202000 08004KT P6SM FEW200=

USA.gov is the U.S. government's official web portal to all federal, state and local government web resources and services.